Time;durP1;ratioP1;P1;durP2;ratioP2;P2;SDS_P1;SDS_P2;PMS_P1;PMS_P2;Temp;Humidity;BMP_temperature;BMP_pressure;BME280_temperature;BME280_humidity;BME280_pressure;Samples;Min_cycle;Max_cycle;Signal;HPM_P1;HPM_P2
2021/12/23 00:01:13;;;;;;;33.58;20.63;;;-3273.80;77.60;;;-5.49;86.24;96356.91;4929242;28;20159;-65
2021/12/23 00:03:38;;;;;;;30.65;20.33;;;-3273.70;78.30;;;-5.48;86.59;96355.19;4930094;29;20059;-66
2021/12/23 00:06:04;;;;;;;33.40;20.60;;;-3273.80;78.80;;;-5.48;86.89;96358.56;4929635;29;20063;-66
2021/12/23 00:08:30;;;;;;;31.63;20.33;;;-3273.70;79.10;;;-5.49;86.71;96350.97;4932018;29;20191;-66
2021/12/23 00:10:55;;;;;;;31.48;20.95;;;-3273.80;78.70;;;-5.50;86.68;96354.44;4932723;28;20074;-67
2021/12/23 00:13:21;;;;;;;31.13;19.40;;;-3273.70;79.00;;;-5.51;86.61;96357.91;4932905;29;20055;-66
2021/12/23 00:16:16;;;;;;;31.92;19.38;;;-3273.70;78.70;;;-5.52;86.61;96349.41;4933053;29;20123;-65
2021/12/23 00:23:57;;;;;;;31.17;20.02;;;-3273.70;78.70;;;-5.58;86.56;96339.50;4933705;29;20099;-66
2021/12/23 00:26:23;;;;;;;34.05;20.77;;;-3273.70;78.60;;;-5.61;87.14;96340.50;4916577;29;20048;-65
2021/12/23 00:28:49;;;;;;;34.20;19.80;;;-3273.60;79.20;;;-5.63;86.79;96339.75;4901308;29;20348;-65
2021/12/23 00:31:16;;;;;;;30.15;19.42;;;-3273.60;79.00;;;-5.62;86.96;96345.72;4926768;29;20070;-65
2021/12/23 00:33:42;;;;;;;32.05;21.20;;;-3273.60;78.80;;;-5.66;86.94;96339.94;4899006;29;20115;-65
2021/12/23 00:36:09;;;;;;;34.08;21.50;;;-3273.60;78.40;;;-5.67;87.05;96330.56;4916840;29;20176;-66
2021/12/23 00:38:40;;;;;;;32.90;20.73;;;-3273.60;78.70;;;-5.69;87.18;96327.25;4933438;29;20036;-65
2021/12/23 00:41:07;;;;;;;31.58;19.98;;;-3273.60;78.90;;;-5.71;87.21;96316.28;4933863;28;20427;-65
2021/12/23 00:43:33;;;;;;;33.88;21.23;;;-3273.50;79.10;;;-5.70;87.34;96317.94;4916973;29;20039;-66
2021/12/23 00:45:59;;;;;;;32.72;20.65;;;-3273.50;79.40;;;-5.73;87.52;96325.78;4914727;29;20040;-65
2021/12/23 00:48:25;;;;;;;36.65;22.13;;;-3273.50;79.70;;;-5.73;87.68;96319.84;4933359;29;20044;-65
2021/12/23 00:50:51;;;;;;;33.65;21.67;;;-3273.50;80.00;;;-5.75;87.67;96317.38;4927798;29;20534;-66
2021/12/23 00:53:19;;;;;;;37.53;21.77;;;-3273.40;79.90;;;-5.77;87.84;96318.34;4917133;29;20047;-65
2021/12/23 00:55:53;;;;;;;39.60;21.83;;;-3273.40;80.00;;;-5.79;88.11;96315.06;4908710;29;20480;-65
2021/12/23 00:58:20;;;;;;;40.03;22.25;;;-3273.40;79.90;;;-5.80;87.72;96314.22;4917015;29;20557;-64
2021/12/23 01:00:48;;;;;;;34.22;21.67;;;-3273.40;79.80;;;-5.79;88.13;96307.38;4917100;29;20086;-66
2021/12/23 01:03:14;;;;;;;36.78;22.67;;;-3273.40;79.80;;;-5.78;87.73;96304.72;4916001;29;20047;-66
2021/12/23 01:05:40;;;;;;;35.70;22.88;;;-3273.50;79.70;;;-5.78;87.70;96296.22;4900834;29;20036;-66
2021/12/23 01:08:06;;;;;;;36.90;21.70;;;-3273.40;79.50;;;-5.78;87.78;96304.72;4916660;29;20088;-66
2021/12/23 01:10:32;;;;;;;40.05;23.90;;;-3273.40;79.10;;;-5.79;87.94;96308.19;4893493;29;20040;-66
2021/12/23 01:13:01;;;;;;;34.42;21.73;;;-3273.50;79.30;;;-5.80;87.96;96301.44;4932393;28;20149;-66
2021/12/23 01:17:59;;;;;;;36.42;23.60;;;-3273.40;80.10;;;-5.79;87.85;96304.81;4936631;29;20123;-66
2021/12/23 01:20:33;;;;;;;39.63;22.35;;;-3273.40;80.00;;;-5.82;88.13;96310.94;4916857;29;20055;-66
2021/12/23 01:23:03;;;;;;;35.42;22.15;;;-3273.40;79.60;;;-5.82;87.43;96315.22;4916305;29;20140;-65
2021/12/23 01:25:29;;;;;;;33.28;21.77;;;-3273.40;78.90;;;-5.86;87.36;96320.53;4913381;29;20047;-66
2021/12/23 01:27:55;;;;;;;38.90;22.13;;;-3273.40;78.60;;;-5.86;87.13;96327.38;4895796;29;20044;-65
2021/12/23 01:30:21;;;;;;;36.08;21.15;;;-3273.30;78.20;;;-5.91;86.94;96329.38;4932020;29;20040;-66
2021/12/23 01:32:48;;;;;;;30.88;19.90;;;-3273.30;77.80;;;-5.93;86.41;96326.06;4916542;29;20550;-66
2021/12/23 01:35:15;;;;;;;34.65;20.38;;;-3273.30;77.50;;;-5.97;86.46;96325.41;4931209;28;20040;-66
2021/12/23 01:37:41;;;;;;;35.10;20.77;;;-3273.20;77.50;;;-5.99;86.49;96321.28;4932101;29;20118;-65
2021/12/23 01:40:08;;;;;;;31.05;20.25;;;-3273.20;77.40;;;-6.02;86.13;96326.59;4912747;29;20036;-65
2021/12/23 01:42:34;;;;;;;36.80;21.98;;;-3273.10;77.40;;;-6.03;86.29;96322.38;4920922;29;20411;-65
2021/12/23 01:45:01;;;;;;;34.17;20.15;;;-3273.20;77.40;;;-6.03;86.38;96324.94;4930990;29;20039;-65
2021/12/23 01:47:26;;;;;;;34.05;21.23;;;-3273.20;77.60;;;-6.03;86.35;96327.50;4931599;29;20042;-66
2021/12/23 01:49:52;;;;;;;33.42;21.65;;;-3273.20;77.90;;;-6.08;86.75;96321.81;4919889;29;20036;-66
2021/12/23 01:52:18;;;;;;;34.08;22.35;;;-3273.00;78.40;;;-6.10;86.81;96323.63;4933722;23;20096;-64
2021/12/23 01:54:44;;;;;;;36.08;22.88;;;-3273.00;79.00;;;-6.14;87.07;96327.22;4891410;29;20188;-64
2021/12/23 01:57:09;;;;;;;39.00;22.70;;;-3273.00;79.20;;;-6.18;86.95;96309.47;4923018;29;20051;-64
2021/12/23 01:59:35;;;;;;;36.50;22.77;;;-3272.90;79.20;;;-6.20;87.16;96313.03;4915868;29;20114;-64
2021/12/23 02:02:01;;;;;;;38.63;24.02;;;-3272.90;79.30;;;-6.22;87.14;96304.59;4896483;29;20044;-66
2021/12/23 02:04:27;;;;;;;40.63;24.05;;;-3272.90;79.20;;;-6.25;87.25;96310.72;4902109;29;20098;-66
2021/12/23 02:06:52;;;;;;;35.90;22.35;;;-3272.90;79.40;;;-6.23;87.29;96305.50;4897047;29;20044;-66
2021/12/23 02:09:18;;;;;;;37.63;23.60;;;-3273.00;79.00;;;-6.23;87.05;96306.34;4930970;29;20193;-65
2021/12/23 02:11:45;;;;;;;39.78;22.85;;;-3273.00;78.90;;;-6.23;87.13;96293.53;4917198;29;20527;-65
2021/12/23 02:14:10;;;;;;;40.30;24.30;;;-3273.00;78.90;;;-6.26;87.13;96293.72;4922634;29;20043;-66
2021/12/23 02:16:36;;;;;;;39.65;25.13;;;-3272.90;79.00;;;-6.27;87.58;96284.38;4944283;28;20508;-65
2021/12/23 02:19:19;;;;;;;43.60;25.70;;;-3272.80;79.30;;;-6.29;87.76;96281.09;4898440;29;20042;-65
2021/12/23 02:21:45;;;;;;;40.15;23.27;;;-3272.90;79.30;;;-6.32;87.51;96277.88;4897773;29;20036;-65
2021/12/23 02:24:11;;;;;;;37.78;24.00;;;-3272.80;79.70;;;-6.35;87.47;96278.00;4869089;29;20106;-65
2021/12/23 02:26:38;;;;;;;44.60;25.90;;;-3272.80;80.00;;;-6.36;87.52;96268.66;4912502;29;20032;-65
2021/12/23 02:29:04;;;;;;;42.10;25.40;;;-3272.80;79.80;;;-6.38;87.64;96266.19;4894748;29;20056;-65
2021/12/23 02:31:30;;;;;;;43.58;26.00;;;-3272.80;80.00;;;-6.37;87.89;96254.22;4908838;29;20036;-65
2021/12/23 02:33:55;;;;;;;42.78;24.20;;;-3272.80;80.10;;;-6.36;87.88;96256.69;4921296;29;20036;-64
2021/12/23 02:36:21;;;;;;;42.50;25.45;;;-3272.90;79.90;;;-6.34;88.21;96260.00;4932331;29;20119;-65
2021/12/23 02:38:47;;;;;;;43.33;24.88;;;-3272.90;79.70;;;-6.33;87.98;96251.44;4924828;29;20043;-65
2021/12/23 02:41:12;;;;;;;48.03;26.48;;;-3273.00;79.50;;;-6.36;87.88;96259.25;4905363;29;20568;-65
2021/12/23 02:43:38;;;;;;;43.55;27.05;;;-3272.80;79.60;;;-6.41;87.63;96255.31;4945034;28;20460;-65
2021/12/23 02:46:04;;;;;;;53.25;27.77;;;-3272.60;79.90;;;-6.46;87.97;96250.44;4914853;29;20511;-65
2021/12/23 02:48:34;;;;;;;48.75;27.38;;;-3272.50;80.20;;;-6.48;87.82;96247.13;4931184;29;20047;-65
2021/12/23 02:51:02;;;;;;;46.00;27.52;;;-3272.60;80.30;;;-6.49;87.83;96240.38;4914285;29;20037;-66
2021/12/23 02:53:27;;;;;;;43.13;26.25;;;-3272.60;80.00;;;-6.51;87.74;96247.31;4916600;29;20040;-66
2021/12/23 02:55:55;;;;;;;44.75;26.52;;;-3272.60;80.00;;;-6.52;87.96;96240.53;4914774;29;20123;-66
2021/12/23 02:58:21;;;;;;;43.30;26.23;;;-3272.60;80.00;;;-6.52;87.91;96254.16;4930969;29;20083;-66
2021/12/23 03:00:48;;;;;;;44.95;26.73;;;-3272.60;79.70;;;-6.50;87.73;96243.84;4928707;29;20142;-64
2021/12/23 03:03:14;;;;;;;44.60;27.23;;;-3272.70;79.50;;;-6.46;87.83;96249.63;4923028;28;20055;-64
2021/12/23 03:05:46;;;;;;;42.42;26.45;;;-3272.80;79.30;;;-6.46;87.70;96245.31;4936814;29;20054;-64
2021/12/23 03:08:11;;;;;;;45.03;27.00;;;-3272.70;79.30;;;-6.44;87.64;96248.63;4915823;29;20492;-64
2021/12/23 03:10:37;;;;;;;42.97;26.50;;;-3272.80;79.20;;;-6.42;87.36;96243.41;4929064;29;20063;-64
2021/12/23 03:13:03;;;;;;;62.55;31.75;;;-3272.80;78.60;;;-6.42;87.65;96244.25;4895907;29;20159;-65
2021/12/23 03:15:29;;;;;;;45.47;27.45;;;-3272.80;78.80;;;-6.45;87.20;96236.72;4927035;29;20074;-64
2021/12/23 03:17:54;;;;;;;46.72;28.13;;;-3272.60;78.50;;;-6.58;87.25;96226.31;4926553;29;20093;-64
2021/12/23 03:20:20;;;;;;;48.95;27.10;;;-3272.30;79.50;;;-6.61;87.52;96225.66;4917223;29;20064;-64
2021/12/23 03:22:46;;;;;;;45.67;26.60;;;-3272.40;79.70;;;-6.60;87.61;96225.56;4928492;29;20132;-64
2021/12/23 03:25:12;;;;;;;47.90;26.50;;;-3272.50;79.40;;;-6.60;87.64;96217.06;4929528;29;20035;-64
2021/12/23 03:27:37;;;;;;;44.30;26.65;;;-3272.50;79.20;;;-6.63;87.33;96222.34;4922191;29;20067;-65
2021/12/23 03:30:04;;;;;;;46.35;28.45;;;-3272.40;79.30;;;-6.61;87.54;96230.78;4906109;29;20040;-64
2021/12/23 03:32:30;;;;;;;48.50;29.52;;;-3272.50;79.60;;;-6.61;87.41;96235.88;4866198;29;20032;-64
2021/12/23 03:34:55;;;;;;;46.38;26.48;;;-3272.60;79.30;;;-6.59;87.47;96236.63;4914667;29;20126;-65
2021/12/23 03:37:21;;;;;;;41.40;25.50;;;-3272.60;79.20;;;-6.56;87.32;96231.38;4930214;29;20051;-65
2021/12/23 03:39:51;;;;;;;53.08;32.05;;;-3272.70;78.80;;;-6.56;87.32;96228.81;4882257;29;20040;-65
2021/12/23 03:42:17;;;;;;;50.15;30.45;;;-3272.70;78.80;;;-6.53;87.50;96223.53;4903718;29;20352;-65
2021/12/23 03:44:43;;;;;;;47.10;27.60;;;-3272.70;78.60;;;-6.53;87.04;96219.25;4913468;29;20096;-65
2021/12/23 03:47:08;;;;;;;42.65;27.23;;;-3272.70;78.30;;;-6.51;87.24;96208.94;4933072;29;20063;-65
2021/12/23 03:49:34;;;;;;;42.80;25.48;;;-3272.70;78.50;;;-6.51;87.29;96211.50;4915128;29;20032;-65
2021/12/23 03:52:00;;;;;;;41.10;25.50;;;-3272.80;78.20;;;-6.50;87.19;96208.00;4884008;29;20072;-65
2021/12/23 03:54:26;;;;;;;43.40;25.45;;;-3272.80;78.20;;;-6.50;87.06;96208.00;4897440;29;20076;-65
2021/12/23 03:56:51;;;;;;;62.03;35.22;;;-3272.80;78.10;;;-6.49;87.40;96212.22;4883682;29;20051;-65
2021/12/23 03:59:17;;;;;;;75.13;44.45;;;-3272.90;78.70;;;-6.46;87.67;96212.06;4931972;29;20036;-65
2021/12/23 04:01:43;;;;;;;50.85;29.20;;;-3272.90;78.80;;;-6.46;87.38;96203.56;4922166;29;20217;-65
2021/12/23 04:04:09;;;;;;;61.28;36.70;;;-3272.80;78.00;;;-6.48;86.89;96201.09;4886344;29;20039;-66
2021/12/23 04:06:34;;;;;;;47.70;28.52;;;-3272.80;78.00;;;-6.50;87.14;96188.38;4909813;29;20133;-65
2021/12/23 04:09:00;;;;;;;41.58;25.58;;;-3272.80;78.00;;;-6.51;86.59;96193.56;4933155;29;20502;-65
2021/12/23 04:11:26;;;;;;;42.67;25.10;;;-3272.80;77.50;;;-6.51;86.93;96191.03;4927050;29;20032;-65
2021/12/23 04:13:53;;;;;;;40.53;24.73;;;-3272.80;77.40;;;-6.50;86.65;96182.44;4915632;29;20036;-65
2021/12/23 04:16:20;;;;;;;38.95;24.08;;;-3272.80;77.20;;;-6.52;86.72;96174.84;4900405;29;20071;-65
2021/12/23 04:18:47;;;;;;;39.92;23.83;;;-3272.80;77.10;;;-6.52;86.65;96166.34;4907616;29;20036;-65
2021/12/23 04:21:13;;;;;;;41.35;26.83;;;-3272.80;77.20;;;-6.51;86.59;96161.13;4921268;29;20527;-65
2021/12/23 04:23:39;;;;;;;68.18;42.28;;;-3272.80;77.50;;;-6.51;86.71;96162.88;4884094;29;20040;-65
2021/12/23 04:26:07;;;;;;;68.93;41.30;;;-3272.80;77.40;;;-6.53;86.68;96149.34;4900323;29;20118;-65
2021/12/23 04:28:35;;;;;;;52.55;28.33;;;-3272.80;77.70;;;-6.53;86.72;96146.78;4917656;29;20449;-65
2021/12/23 04:31:00;;;;;;;39.97;25.50;;;-3272.80;77.40;;;-6.52;86.79;96143.31;4927503;28;20043;-65
2021/12/23 04:33:26;;;;;;;40.33;23.50;;;-3272.80;77.20;;;-6.54;86.78;96133.16;4933153;29;20058;-65
2021/12/23 04:35:52;;;;;;;40.65;24.50;;;-3272.80;77.00;;;-6.53;86.50;96144.22;4933039;29;20067;-65
2021/12/23 04:38:17;;;;;;;38.83;24.67;;;-3272.80;76.90;;;-6.52;86.58;96127.97;4913499;29;20476;-65
2021/12/23 04:40:43;;;;;;;38.05;23.70;;;-3272.80;77.00;;;-6.53;85.92;96121.19;4939980;29;20128;-65
2021/12/23 04:43:09;;;;;;;39.75;23.83;;;-3272.70;76.80;;;-6.57;85.93;96123.06;4939534;28;20094;-65
2021/12/23 04:45:35;;;;;;;37.55;23.67;;;-3272.70;76.40;;;-6.59;85.96;96113.84;4929764;29;20067;-65
2021/12/23 04:48:01;;;;;;;41.30;23.77;;;-3272.70;76.60;;;-6.60;86.26;96123.25;4916714;29;20028;-65
2021/12/23 04:50:26;;;;;;;41.15;24.33;;;-3272.60;76.70;;;-6.61;85.71;96131.00;4924383;29;20780;-65
2021/12/23 04:52:52;;;;;;;40.85;23.63;;;-3272.60;76.60;;;-6.63;85.63;96125.16;4918228;29;20032;-65
2021/12/23 04:55:18;;;;;;;37.75;23.42;;;-3272.60;76.40;;;-6.63;85.49;96130.28;4908945;28;20078;-65
2021/12/23 04:57:44;;;;;;;36.67;23.48;;;-3272.70;76.20;;;-6.64;85.32;96138.84;4903903;29;20058;-65
2021/12/23 05:00:20;;;;;;;41.10;25.30;;;-3272.60;76.10;;;-6.66;85.24;96145.78;4915820;29;20039;-65
2021/12/23 05:02:46;;;;;;;40.67;23.88;;;-3272.50;76.10;;;-6.69;85.22;96141.66;4928580;29;20051;-65
2021/12/23 05:05:12;;;;;;;38.72;23.73;;;-3272.50;76.10;;;-6.72;85.11;96141.00;4910853;29;20063;-65
2021/12/23 05:07:38;;;;;;;39.65;24.02;;;-3272.50;75.90;;;-6.77;85.22;96133.59;4917003;29;20122;-65
2021/12/23 05:10:06;;;;;;;39.42;23.35;;;-3272.50;75.70;;;-6.84;85.10;96127.97;4902238;29;20036;-65
2021/12/23 05:12:32;;;;;;;40.80;23.30;;;-3272.50;75.80;;;-6.84;84.66;96137.38;4897865;29;20043;-65
2021/12/23 05:14:58;;;;;;;39.13;23.33;;;-3272.50;75.80;;;-6.85;84.81;96128.06;4913088;29;20040;-66
2021/12/23 05:17:23;;;;;;;38.53;23.23;;;-3272.40;75.40;;;-6.90;84.50;96128.31;4923362;29;20055;-65
2021/12/23 05:19:49;;;;;;;43.35;23.55;;;-3272.40;75.50;;;-6.92;85.11;96130.13;4921980;29;20095;-65
2021/12/23 05:22:15;;;;;;;42.97;24.55;;;-3272.30;75.50;;;-6.93;84.72;96128.47;4912013;29;20063;-65
2021/12/23 05:24:40;;;;;;;44.28;23.88;;;-3272.30;75.70;;;-6.95;84.78;96127.72;4915749;29;20059;-65
2021/12/23 05:27:06;;;;;;;37.92;23.40;;;-3272.30;75.70;;;-7.00;84.73;96127.16;4931787;29;20062;-65
2021/12/23 05:29:32;;;;;;;39.50;23.92;;;-3272.30;75.70;;;-7.04;85.03;96125.66;4919000;29;20040;-65
2021/12/23 05:31:58;;;;;;;38.88;23.95;;;-3272.20;76.20;;;-7.07;84.82;96120.69;4911462;29;20248;-65
2021/12/23 05:34:23;;;;;;;38.95;24.58;;;-3272.20;76.20;;;-7.08;84.90;96111.38;4923752;29;20039;-65
2021/12/23 05:36:49;;;;;;;38.47;23.67;;;-3272.10;76.30;;;-7.10;84.83;96120.88;4927679;29;20074;-65
2021/12/23 05:39:15;;;;;;;43.85;23.88;;;-3272.10;76.60;;;-7.12;85.25;96123.50;4927906;29;20054;-65
2021/12/23 05:41:41;;;;;;;38.13;21.45;;;-3272.10;76.70;;;-7.12;85.02;96122.69;4926067;29;20198;-65
2021/12/23 05:44:06;;;;;;;41.05;24.45;;;-3272.00;76.90;;;-7.11;85.60;96124.34;4905772;29;20067;-65
2021/12/23 05:46:32;;;;;;;36.95;23.33;;;-3272.10;77.00;;;-7.13;85.40;96115.91;4910773;29;20039;-65
2021/12/23 05:48:58;;;;;;;38.80;22.83;;;-3272.10;77.10;;;-7.13;85.42;96126.16;4930999;28;20518;-65
2021/12/23 05:51:24;;;;;;;37.40;22.98;;;-3272.10;77.50;;;-7.12;85.62;96120.94;4915293;29;20067;-65
2021/12/23 05:53:49;;;;;;;40.40;21.70;;;-3272.10;77.60;;;-7.12;85.71;96123.50;4914748;29;20056;-65
2021/12/23 05:56:15;;;;;;;37.97;23.05;;;-3272.10;77.50;;;-7.11;85.48;96114.09;4931496;29;20458;-65
2021/12/23 05:58:41;;;;;;;40.15;23.73;;;-3272.20;77.60;;;-7.10;85.70;96110.66;4907249;29;20498;-65
2021/12/23 06:01:06;;;;;;;39.92;24.00;;;-3272.10;77.60;;;-7.12;85.72;96103.06;4897766;29;20538;-66
2021/12/23 06:03:32;;;;;;;40.05;23.15;;;-3272.10;77.60;;;-7.11;85.79;96098.78;4904899;29;20055;-66
2021/12/23 06:05:58;;;;;;;38.75;22.92;;;-3272.10;77.40;;;-7.12;85.58;96097.13;4931046;29;20118;-65
2021/12/23 06:08:24;;;;;;;39.97;21.92;;;-3272.10;77.20;;;-7.13;85.71;96095.47;4931453;29;20070;-65
2021/12/23 06:10:49;;;;;;;35.85;22.35;;;-3272.10;77.00;;;-7.15;85.61;96090.44;4900538;29;20044;-65
2021/12/23 06:13:15;;;;;;;43.28;25.25;;;-3272.20;76.90;;;-7.12;85.65;96090.28;4927707;28;20039;-65
2021/12/23 06:15:41;;;;;;;67.03;39.17;;;-3272.20;77.20;;;-7.10;85.91;96098.69;4913813;29;20131;-65
2021/12/23 06:18:07;;;;;;;53.05;30.75;;;-3272.30;77.60;;;-7.11;85.98;96098.78;4903840;29;20032;-65
2021/12/23 06:20:32;;;;;;;43.33;26.00;;;-3272.20;77.20;;;-7.10;85.79;96100.41;4912766;29;20044;-65
2021/12/23 06:22:58;;;;;;;36.40;22.05;;;-3272.20;76.90;;;-7.11;85.92;96104.72;4923548;29;20039;-66
2021/12/23 06:25:24;;;;;;;36.88;23.25;;;-3272.20;76.80;;;-7.12;85.56;96104.78;4927194;29;20071;-65
2021/12/23 06:27:50;;;;;;;40.47;22.05;;;-3272.20;76.60;;;-7.12;85.44;96107.34;4912390;29;20063;-65
2021/12/23 06:30:19;;;;;;;35.67;21.85;;;-3272.30;76.50;;;-7.11;85.59;96114.09;4927481;29;20070;-68
2021/12/23 06:32:51;;;;;;;36.45;21.65;;;-3272.30;76.40;;;-7.12;85.84;96107.34;4881382;29;20051;-68
2021/12/23 06:35:16;;;;;;;;;;;-3272.20;76.40;;;-7.12;85.93;96122.69;4883146;29;20036;-67
2021/12/23 06:37:43;;;;;;;29.95;16.00;;;-3272.20;76.50;;;-7.14;85.61;96111.72;4909801;29;19929;-64
2021/12/23 06:40:10;;;;;;;35.63;22.30;;;-3272.10;76.90;;;-7.16;85.57;96106.69;4925408;29;20055;-70
2021/12/23 06:42:35;;;;;;;35.90;22.58;;;-3272.10;77.10;;;-7.20;85.70;96106.94;4924561;29;20519;-67
2021/12/23 06:45:01;;;;;;;36.72;23.08;;;-3272.00;77.40;;;-7.23;85.58;96102.00;4919130;29;20059;-68
2021/12/23 06:47:27;;;;;;;37.70;23.08;;;-3272.00;77.60;;;-7.23;85.84;96109.66;4924032;29;20046;-65
2021/12/23 06:49:53;;;;;;;36.60;23.38;;;-3272.00;77.60;;;-7.24;86.27;96113.09;4929382;29;20075;-65
2021/12/23 06:52:18;;;;;;;37.08;23.25;;;-3272.00;77.80;;;-7.27;86.20;96118.38;4913303;29;20068;-65
2021/12/23 06:54:46;;;;;;;41.78;23.70;;;-3272.00;78.00;;;-7.30;86.24;96114.25;4904894;29;20040;-65
2021/12/23 06:57:13;;;;;;;38.80;24.35;;;-3271.90;78.70;;;-7.30;86.70;96115.97;4912316;29;20528;-65
2021/12/23 06:59:39;;;;;;;38.17;22.77;;;-3272.00;78.80;;;-7.31;86.50;96106.66;4926799;29;20040;-65
2021/12/23 07:02:05;;;;;;;36.67;24.20;;;-3272.00;78.60;;;-7.34;86.22;96117.88;4902594;29;20559;-65
2021/12/23 07:04:33;;;;;;;38.72;23.00;;;-3271.90;78.40;;;-7.35;86.18;96106.00;4898294;29;20114;-65
2021/12/23 07:07:08;;;;;;;38.15;23.23;;;-3271.90;78.10;;;-7.34;86.32;96111.94;4911157;29;20131;-65
2021/12/23 07:09:41;;;;;;;37.63;23.60;;;-3271.90;78.30;;;-7.35;86.41;96115.41;4894303;29;20028;-65
2021/12/23 07:12:09;;;;;;;39.22;23.48;;;-3271.90;78.20;;;-7.35;86.49;96120.50;4921809;29;20065;-65
2021/12/23 07:14:35;;;;;;;36.83;23.88;;;-3272.00;78.10;;;-7.34;86.53;96127.25;4911141;29;20066;-65
2021/12/23 07:17:01;;;;;;;36.50;22.33;;;-3272.00;77.80;;;-7.34;86.41;96122.97;4892207;29;20033;-65
2021/12/23 07:19:27;;;;;;;34.70;21.65;;;-3272.00;77.50;;;-7.30;86.11;96138.97;4930121;29;20380;-65
2021/12/23 07:21:53;;;;;;;38.58;24.40;;;-3272.10;77.30;;;-7.33;86.32;96124.63;4934009;29;20090;-65
2021/12/23 07:24:18;;;;;;;39.22;23.60;;;-3272.00;77.20;;;-7.34;86.38;96133.19;4915799;29;20083;-65
2021/12/23 07:26:44;;;;;;;42.42;23.75;;;-3271.90;77.70;;;-7.33;86.38;96128.91;4935927;29;20070;-65
2021/12/23 07:29:10;;;;;;;38.03;23.75;;;-3271.90;78.20;;;-7.36;86.76;96119.69;4920569;29;20118;-67
2021/12/23 07:31:36;;;;;;;38.78;23.27;;;-3271.80;78.90;;;-7.42;87.29;96115.72;4926122;29;20115;-67
2021/12/23 07:34:01;;;;;;;43.25;24.38;;;-3271.70;80.10;;;-7.42;87.85;96105.50;4917189;29;20091;-67
2021/12/23 07:36:27;;;;;;;44.47;24.52;;;-3271.70;80.70;;;-7.40;88.11;96102.88;4917923;29;20504;-67
2021/12/23 07:38:54;;;;;;;41.83;24.15;;;-3271.70;81.00;;;-7.36;88.30;96099.25;4902247;29;20122;-67
2021/12/23 07:41:20;;;;;;;45.15;24.52;;;-3271.70;81.10;;;-7.28;88.39;96107.31;4901486;29;20036;-67
2021/12/23 07:43:59;;;;;;;47.60;25.17;;;-3272.00;81.20;;;-7.16;88.75;96116.09;4918384;29;20040;-68
2021/12/23 07:46:26;;;;;;;47.13;25.40;;;-3272.20;80.90;;;-7.00;88.71;96113.56;4933316;29;20598;-69
2021/12/23 07:48:52;;;;;;;42.08;24.25;;;-3272.50;80.40;;;-6.88;89.03;96116.25;4918478;29;20039;-68
2021/12/23 07:51:18;;;;;;;41.72;23.98;;;-3272.80;79.90;;;-6.72;89.28;96125.66;4917528;29;20040;-68
2021/12/23 07:53:44;;;;;;;46.88;25.65;;;-3273.00;79.50;;;-6.59;89.52;96126.63;4918050;29;20059;-68
2021/12/23 07:56:09;;;;;;;47.42;25.75;;;-3273.20;79.10;;;-6.45;89.31;96124.16;4932335;29;20048;-69
2021/12/23 07:58:35;;;;;;;49.40;25.90;;;-3273.40;78.80;;;-6.31;89.06;96128.50;4933546;29;20130;-70
2021/12/23 08:01:01;;;;;;;42.35;24.92;;;-3273.50;78.60;;;-6.20;89.56;96114.19;4918798;29;20063;-70
2021/12/23 08:03:26;;;;;;;47.63;24.80;;;-3273.60;78.30;;;-6.08;89.45;96111.84;4900859;29;20119;-69
2021/12/23 08:05:52;;;;;;;50.45;27.10;;;-3273.70;78.00;;;-5.97;89.17;96096.69;4899244;29;20040;-71
2021/12/23 08:08:39;;;;;;;46.90;27.10;;;-3273.90;77.60;;;-5.85;89.14;96093.41;4918914;29;20079;-69
2021/12/23 08:11:06;;;;;;;48.22;25.38;;;-3273.90;77.10;;;-5.77;88.87;96098.06;4904160;29;20032;-65
2021/12/23 08:13:32;;;;;;;49.22;25.67;;;-3274.00;77.00;;;-5.68;88.71;96100.06;4932097;29;20051;-64
2021/12/23 08:15:58;;;;;;;49.72;27.55;;;-3274.00;77.00;;;-5.60;88.75;96093.59;4917543;29;20044;-64
2021/12/23 08:18:24;;;;;;;50.55;26.05;;;-3274.10;77.00;;;-5.52;88.48;96082.88;4916913;29;20043;-65
2021/12/23 08:20:50;;;;;;;47.65;26.63;;;-3274.10;76.80;;;-5.44;88.41;96082.41;4909900;29;20233;-67
2021/12/23 08:23:16;;;;;;;55.38;26.67;;;-3274.20;76.90;;;-5.34;88.49;96078.41;4933166;29;20097;-67
2021/12/23 08:25:42;;;;;;;51.30;27.70;;;-3274.40;76.90;;;-5.25;88.51;96081.22;4917620;29;20119;-67
2021/12/23 08:28:09;;;;;;;55.25;28.02;;;-3274.40;76.70;;;-5.19;88.43;96082.63;4902086;29;20531;-68
2021/12/23 08:30:35;;;;;;;56.33;28.88;;;-3274.40;77.20;;;-5.11;88.85;96080.38;4916812;29;20039;-67
2021/12/23 08:33:01;;;;;;;54.00;27.85;;;-3274.50;77.50;;;-5.04;88.73;96079.09;4913953;29;20536;-68
2021/12/23 08:35:26;;;;;;;53.78;27.13;;;-3274.50;77.40;;;-4.98;88.86;96075.31;4898415;29;20135;-68
2021/12/23 08:37:53;;;;;;;53.08;27.42;;;-3274.60;77.50;;;-4.94;88.50;96074.22;4898866;29;20123;-67
2021/12/23 08:40:22;;;;;;;51.70;27.85;;;-3274.50;77.50;;;-4.88;88.36;96065.31;4914308;29;20048;-68
2021/12/23 08:42:48;;;;;;;48.85;26.58;;;-3274.60;77.50;;;-4.84;88.44;96067.59;4883817;29;20062;-68
2021/12/23 08:45:14;;;;;;;47.47;26.33;;;-3274.70;77.20;;;-4.77;88.45;96073.16;4897945;29;20485;-68
2021/12/23 08:47:40;;;;;;;49.05;26.00;;;-3274.80;77.00;;;-4.73;88.08;96079.78;4927284;29;20522;-68
2021/12/23 08:50:08;;;;;;;46.50;24.60;;;-3274.80;76.40;;;-4.70;88.08;96072.69;4932640;29;20126;-68
2021/12/23 08:52:34;;;;;;;47.97;25.70;;;-3274.80;76.30;;;-4.66;87.86;96076.72;4922459;29;20503;-67
2021/12/23 08:54:59;;;;;;;48.85;26.30;;;-3274.90;76.50;;;-4.55;88.13;96072.63;4926459;29;20048;-67
2021/12/23 08:57:25;;;;;;;43.92;25.52;;;-3275.10;76.30;;;-4.46;87.98;96062.63;4908446;29;20028;-66
2021/12/23 08:59:51;;;;;;;48.78;26.42;;;-3275.30;76.20;;;-4.39;87.98;96051.03;4922951;29;20461;-66
2021/12/23 09:02:16;;;;;;;48.63;26.50;;;-3275.30;76.00;;;-4.34;88.23;96051.53;4907369;29;20445;-70
2021/12/23 09:04:42;;;;;;;45.67;26.63;;;-3275.30;76.00;;;-4.29;87.63;96050.44;4903663;29;20544;-70
2021/12/23 09:07:10;;;;;;;46.15;25.55;;;-3275.20;75.70;;;-4.22;87.78;96059.38;4882660;29;20800;-66
2021/12/23 09:09:36;;;;;;;43.63;24.52;;;-3275.30;75.20;;;-4.18;87.20;96060.81;4917757;29;20510;-67
2021/12/23 09:12:03;;;;;;;43.22;24.55;;;-3275.40;74.50;;;-4.12;87.08;96060.41;4932027;29;20048;-67
2021/12/23 09:14:29;;;;;;;42.97;23.15;;;-3275.50;74.20;;;-4.04;87.06;96058.19;4918175;29;20158;-66
2021/12/23 09:16:55;;;;;;;46.65;25.55;;;-3275.70;74.00;;;-3.93;87.20;96058.28;4913687;29;20059;-65
2021/12/23 09:19:20;;;;;;;44.13;23.10;;;-3275.80;74.00;;;-3.84;87.18;96039.72;4890303;29;20063;-66
2021/12/23 09:21:46;;;;;;;44.10;23.77;;;-3275.90;73.80;;;-3.75;87.20;96053.69;4900865;29;20484;-66
2021/12/23 09:24:12;;;;;;;44.92;24.67;;;-3276.00;73.60;;;-3.66;86.86;96049.66;4914215;29;20504;-64
2021/12/23 09:26:49;;;;;;;42.20;23.80;;;-3276.10;73.50;;;-3.57;86.69;96047.31;4896464;29;20067;-65
2021/12/23 09:32:39;;;;;;;42.83;24.08;;;-3276.30;73.20;;;-3.44;86.78;96055.00;4916018;29;20123;-65
2021/12/23 09:34:45;;;;;;;41.33;23.77;;;-3276.70;73.30;;;-3.18;86.73;96055.78;4931525;29;20103;-66
2021/12/23 09:37:10;;;;;;;39.13;23.00;;;0.00;71.60;;;-3.10;86.21;96048.38;4930673;29;20071;-68
2021/12/23 09:39:36;;;;;;;39.00;22.45;;;0.00;70.10;;;-3.00;85.69;96056.25;4933556;29;20035;-67
2021/12/23 09:42:03;;;;;;;39.67;23.52;;;0.10;70.50;;;-2.93;85.80;96063.44;4928186;29;20195;-68
2021/12/23 09:44:30;;;;;;;37.33;22.17;;;0.30;69.80;;;-2.80;86.00;96068.53;4882863;29;20031;-68
2021/12/23 09:47:00;;;;;;;39.30;22.70;;;0.50;70.00;;;-2.69;85.68;96065.22;4914702;29;20530;-67
2021/12/23 09:49:25;;;;;;;36.13;22.20;;;0.60;70.10;;;-2.60;85.67;96049.94;4912682;29;20029;-68
2021/12/23 09:51:51;;;;;;;33.75;21.25;;;0.60;69.60;;;-2.51;85.12;96033.81;4892978;29;20388;-67
2021/12/23 09:54:17;;;;;;;35.70;21.73;;;0.70;69.10;;;-2.41;84.86;96025.44;4912466;29;20059;-68
2021/12/23 09:56:43;;;;;;;34.63;21.05;;;0.80;68.50;;;-2.31;84.61;96018.66;4919840;29;20046;-69